sensor_id;sensor_type;location;lat;lon;timestamp;P1;durP1;ratioP1;P2;durP2;ratioP2
1585;SDS011;786;48.718;9.514;2023-04-07T00:01:15;9.25;;;7.47;;
1585;SDS011;786;48.718;9.514;2023-04-07T00:03:41;14.23;;;10.13;;
1585;SDS011;786;48.718;9.514;2023-04-07T00:06:07;8.30;;;6.88;;
1585;SDS011;786;48.718;9.514;2023-04-07T00:08:35;10.63;;;8.85;;
1585;SDS011;786;48.718;9.514;2023-04-07T00:11:01;12.45;;;8.55;;
1585;SDS011;786;48.718;9.514;2023-04-07T00:13:28;10.18;;;7.90;;
1585;SDS011;786;48.718;9.514;2023-04-07T00:15:54;8.23;;;6.40;;
1585;SDS011;786;48.718;9.514;2023-04-07T00:18:20;8.57;;;7.18;;
1585;SDS011;786;48.718;9.514;2023-04-07T00:20:47;9.95;;;7.38;;
1585;SDS011;786;48.718;9.514;2023-04-07T00:23:13;10.93;;;7.45;;
1585;SDS011;786;48.718;9.514;2023-04-07T00:25:41;15.75;;;11.98;;
1585;SDS011;786;48.718;9.514;2023-04-07T00:28:07;10.15;;;8.20;;
1585;SDS011;786;48.718;9.514;2023-04-07T00:30:33;13.80;;;10.63;;
1585;SDS011;786;48.718;9.514;2023-04-07T00:33:00;14.10;;;9.13;;
1585;SDS011;786;48.718;9.514;2023-04-07T00:35:26;12.40;;;9.55;;
1585;SDS011;786;48.718;9.514;2023-04-07T00:37:52;14.80;;;11.93;;
1585;SDS011;786;48.718;9.514;2023-04-07T00:40:19;9.98;;;7.82;;
1585;SDS011;786;48.718;9.514;2023-04-07T00:42:46;13.38;;;9.18;;
1585;SDS011;786;48.718;9.514;2023-04-07T00:45:13;13.65;;;8.75;;
1585;SDS011;786;48.718;9.514;2023-04-07T00:47:39;15.80;;;11.13;;
1585;SDS011;786;48.718;9.514;2023-04-07T00:50:06;14.73;;;10.25;;
1585;SDS011;786;48.718;9.514;2023-04-07T00:52:33;12.65;;;9.45;;
1585;SDS011;786;48.718;9.514;2023-04-07T00:54:59;13.07;;;9.40;;
1585;SDS011;786;48.718;9.514;2023-04-07T00:57:26;13.65;;;11.13;;
1585;SDS011;786;48.718;9.514;2023-04-07T00:59:54;13.50;;;10.13;;
1585;SDS011;786;48.718;9.514;2023-04-07T01:02:22;11.77;;;7.63;;
1585;SDS011;786;48.718;9.514;2023-04-07T01:04:53;11.02;;;8.15;;
1585;SDS011;786;48.718;9.514;2023-04-07T01:07:22;17.38;;;11.45;;
1585;SDS011;786;48.718;9.514;2023-04-07T01:09:52;14.05;;;9.23;;
1585;SDS011;786;48.718;9.514;2023-04-07T01:12:22;12.15;;;8.52;;
1585;SDS011;786;48.718;9.514;2023-04-07T01:14:54;14.00;;;9.02;;
1585;SDS011;786;48.718;9.514;2023-04-07T01:17:24;14.45;;;10.50;;
1585;SDS011;786;48.718;9.514;2023-04-07T01:19:52;11.15;;;8.32;;
1585;SDS011;786;48.718;9.514;2023-04-07T01:22:22;12.85;;;9.30;;
1585;SDS011;786;48.718;9.514;2023-04-07T01:24:59;13.63;;;9.13;;
1585;SDS011;786;48.718;9.514;2023-04-07T01:27:33;17.70;;;13.65;;
1585;SDS011;786;48.718;9.514;2023-04-07T01:30:03;13.60;;;9.95;;
1585;SDS011;786;48.718;9.514;2023-04-07T01:32:33;13.57;;;10.43;;
1585;SDS011;786;48.718;9.514;2023-04-07T01:35:02;13.10;;;10.10;;
1585;SDS011;786;48.718;9.514;2023-04-07T01:37:30;16.02;;;11.07;;
1585;SDS011;786;48.718;9.514;2023-04-07T01:39:57;14.10;;;9.38;;
1585;SDS011;786;48.718;9.514;2023-04-07T01:42:23;12.48;;;8.40;;
1585;SDS011;786;48.718;9.514;2023-04-07T01:44:51;13.52;;;9.15;;
1585;SDS011;786;48.718;9.514;2023-04-07T01:47:19;12.05;;;9.88;;
1585;SDS011;786;48.718;9.514;2023-04-07T01:49:45;11.88;;;9.30;;
1585;SDS011;786;48.718;9.514;2023-04-07T01:52:13;13.50;;;10.45;;
1585;SDS011;786;48.718;9.514;2023-04-07T01:54:40;14.27;;;10.23;;
1585;SDS011;786;48.718;9.514;2023-04-07T01:57:06;18.25;;;13.27;;
1585;SDS011;786;48.718;9.514;2023-04-07T01:59:32;15.55;;;11.40;;
1585;SDS011;786;48.718;9.514;2023-04-07T02:01:59;16.50;;;11.52;;
1585;SDS011;786;48.718;9.514;2023-04-07T02:04:28;13.63;;;9.05;;
1585;SDS011;786;48.718;9.514;2023-04-07T02:06:58;14.80;;;10.70;;
1585;SDS011;786;48.718;9.514;2023-04-07T02:09:27;12.48;;;9.73;;
1585;SDS011;786;48.718;9.514;2023-04-07T02:11:55;13.65;;;10.15;;
1585;SDS011;786;48.718;9.514;2023-04-07T02:14:23;13.38;;;8.60;;
1585;SDS011;786;48.718;9.514;2023-04-07T02:16:50;14.95;;;10.48;;
1585;SDS011;786;48.718;9.514;2023-04-07T02:19:18;15.88;;;11.20;;
1585;SDS011;786;48.718;9.514;2023-04-07T02:21:45;14.90;;;10.52;;
1585;SDS011;786;48.718;9.514;2023-04-07T02:24:12;16.42;;;10.80;;
1585;SDS011;786;48.718;9.514;2023-04-07T02:26:41;15.38;;;12.32;;
1585;SDS011;786;48.718;9.514;2023-04-07T02:29:08;12.63;;;9.20;;
1585;SDS011;786;48.718;9.514;2023-04-07T02:31:34;17.58;;;13.45;;
1585;SDS011;786;48.718;9.514;2023-04-07T02:34:00;16.35;;;10.68;;
1585;SDS011;786;48.718;9.514;2023-04-07T02:36:27;19.10;;;13.75;;
1585;SDS011;786;48.718;9.514;2023-04-07T02:38:54;15.85;;;9.98;;
1585;SDS011;786;48.718;9.514;2023-04-07T02:41:21;13.05;;;9.35;;
1585;SDS011;786;48.718;9.514;2023-04-07T02:43:47;15.32;;;10.63;;
1585;SDS011;786;48.718;9.514;2023-04-07T02:46:13;14.52;;;9.70;;
1585;SDS011;786;48.718;9.514;2023-04-07T02:48:40;15.07;;;11.80;;
1585;SDS011;786;48.718;9.514;2023-04-07T02:51:06;16.55;;;10.75;;
1585;SDS011;786;48.718;9.514;2023-04-07T02:53:32;17.17;;;11.10;;
1585;SDS011;786;48.718;9.514;2023-04-07T02:56:00;13.63;;;8.93;;
1585;SDS011;786;48.718;9.514;2023-04-07T02:58:26;13.60;;;10.50;;
1585;SDS011;786;48.718;9.514;2023-04-07T03:00:53;12.90;;;9.25;;
1585;SDS011;786;48.718;9.514;2023-04-07T03:03:19;16.40;;;10.05;;
1585;SDS011;786;48.718;9.514;2023-04-07T03:05:45;14.32;;;9.68;;
1585;SDS011;786;48.718;9.514;2023-04-07T03:08:12;14.75;;;10.68;;
1585;SDS011;786;48.718;9.514;2023-04-07T03:10:38;14.30;;;10.68;;
1585;SDS011;786;48.718;9.514;2023-04-07T03:13:06;14.98;;;10.65;;
1585;SDS011;786;48.718;9.514;2023-04-07T03:15:33;14.45;;;11.48;;
1585;SDS011;786;48.718;9.514;2023-04-07T03:17:59;16.98;;;13.82;;
1585;SDS011;786;48.718;9.514;2023-04-07T03:20:25;14.45;;;10.38;;
1585;SDS011;786;48.718;9.514;2023-04-07T03:22:52;14.05;;;10.52;;
1585;SDS011;786;48.718;9.514;2023-04-07T03:25:18;13.98;;;10.18;;
1585;SDS011;786;48.718;9.514;2023-04-07T03:27:45;13.98;;;11.38;;
1585;SDS011;786;48.718;9.514;2023-04-07T03:30:13;15.35;;;10.48;;
1585;SDS011;786;48.718;9.514;2023-04-07T03:32:40;15.73;;;10.68;;
1585;SDS011;786;48.718;9.514;2023-04-07T03:35:06;16.02;;;10.90;;
1585;SDS011;786;48.718;9.514;2023-04-07T03:37:33;20.98;;;15.85;;
1585;SDS011;786;48.718;9.514;2023-04-07T03:40:00;16.33;;;11.98;;
1585;SDS011;786;48.718;9.514;2023-04-07T03:42:26;14.98;;;10.90;;
1585;SDS011;786;48.718;9.514;2023-04-07T03:44:53;13.93;;;10.82;;
1585;SDS011;786;48.718;9.514;2023-04-07T03:47:21;16.77;;;12.45;;
1585;SDS011;786;48.718;9.514;2023-04-07T03:49:47;16.08;;;11.23;;
1585;SDS011;786;48.718;9.514;2023-04-07T03:52:13;13.77;;;9.48;;
1585;SDS011;786;48.718;9.514;2023-04-07T03:54:40;15.23;;;11.60;;
1585;SDS011;786;48.718;9.514;2023-04-07T03:57:07;16.98;;;12.10;;
1585;SDS011;786;48.718;9.514;2023-04-07T03:59:34;17.58;;;12.50;;
1585;SDS011;786;48.718;9.514;2023-04-07T04:02:00;17.92;;;12.82;;
1585;SDS011;786;48.718;9.514;2023-04-07T04:04:28;16.15;;;11.35;;
1585;SDS011;786;48.718;9.514;2023-04-07T04:06:54;16.35;;;12.07;;
1585;SDS011;786;48.718;9.514;2023-04-07T04:09:21;17.58;;;10.45;;
1585;SDS011;786;48.718;9.514;2023-04-07T04:11:47;20.45;;;13.43;;
1585;SDS011;786;48.718;9.514;2023-04-07T04:14:13;19.95;;;11.48;;
1585;SDS011;786;48.718;9.514;2023-04-07T04:16:40;18.55;;;13.45;;
1585;SDS011;786;48.718;9.514;2023-04-07T04:19:06;21.30;;;13.57;;
1585;SDS011;786;48.718;9.514;2023-04-07T04:21:34;19.30;;;13.88;;
1585;SDS011;786;48.718;9.514;2023-04-07T04:24:00;26.80;;;16.33;;
1585;SDS011;786;48.718;9.514;2023-04-07T04:26:27;19.20;;;12.70;;
1585;SDS011;786;48.718;9.514;2023-04-07T04:28:53;22.58;;;14.32;;
1585;SDS011;786;48.718;9.514;2023-04-07T04:31:20;20.48;;;12.82;;
1585;SDS011;786;48.718;9.514;2023-04-07T04:33:46;21.27;;;12.68;;
1585;SDS011;786;48.718;9.514;2023-04-07T04:36:12;18.35;;;13.30;;
1585;SDS011;786;48.718;9.514;2023-04-07T04:38:41;21.42;;;14.55;;
1585;SDS011;786;48.718;9.514;2023-04-07T04:41:07;21.73;;;13.65;;
1585;SDS011;786;48.718;9.514;2023-04-07T04:43:33;22.38;;;15.00;;
1585;SDS011;786;48.718;9.514;2023-04-07T04:46:00;23.67;;;15.77;;
1585;SDS011;786;48.718;9.514;2023-04-07T04:48:26;22.88;;;14.48;;
1585;SDS011;786;48.718;9.514;2023-04-07T04:50:52;22.55;;;13.73;;
1585;SDS011;786;48.718;9.514;2023-04-07T04:53:19;20.40;;;13.60;;
1585;SDS011;786;48.718;9.514;2023-04-07T04:55:46;21.85;;;14.20;;
1585;SDS011;786;48.718;9.514;2023-04-07T04:58:16;21.25;;;12.40;;
1585;SDS011;786;48.718;9.514;2023-04-07T05:00:42;20.05;;;13.52;;
1585;SDS011;786;48.718;9.514;2023-04-07T05:03:08;23.25;;;14.63;;
1585;SDS011;786;48.718;9.514;2023-04-07T05:05:35;24.33;;;14.75;;
1585;SDS011;786;48.718;9.514;2023-04-07T05:08:01;28.02;;;18.77;;
1585;SDS011;786;48.718;9.514;2023-04-07T05:10:28;27.15;;;15.27;;
1585;SDS011;786;48.718;9.514;2023-04-07T05:12:55;26.67;;;15.68;;
1585;SDS011;786;48.718;9.514;2023-04-07T05:15:22;20.92;;;13.00;;
1585;SDS011;786;48.718;9.514;2023-04-07T05:17:48;27.98;;;15.77;;
1585;SDS011;786;48.718;9.514;2023-04-07T05:20:14;24.45;;;13.75;;
1585;SDS011;786;48.718;9.514;2023-04-07T05:22:41;24.27;;;15.82;;
1585;SDS011;786;48.718;9.514;2023-04-07T05:25:07;25.02;;;15.30;;
1585;SDS011;786;48.718;9.514;2023-04-07T05:27:34;26.00;;;16.60;;
1585;SDS011;786;48.718;9.514;2023-04-07T05:30:02;23.58;;;14.60;;
1585;SDS011;786;48.718;9.514;2023-04-07T05:32:29;22.10;;;15.43;;
1585;SDS011;786;48.718;9.514;2023-04-07T05:34:55;23.98;;;14.73;;
1585;SDS011;786;48.718;9.514;2023-04-07T05:37:22;23.38;;;15.55;;
1585;SDS011;786;48.718;9.514;2023-04-07T05:39:48;21.73;;;15.38;;
1585;SDS011;786;48.718;9.514;2023-04-07T05:42:14;22.75;;;14.48;;
1585;SDS011;786;48.718;9.514;2023-04-07T05:44:41;20.77;;;14.77;;
1585;SDS011;786;48.718;9.514;2023-04-07T05:47:08;24.33;;;16.25;;
1585;SDS011;786;48.718;9.514;2023-04-07T05:49:35;19.73;;;13.60;;
1585;SDS011;786;48.718;9.514;2023-04-07T05:52:01;24.02;;;16.25;;
1585;SDS011;786;48.718;9.514;2023-04-07T05:54:29;21.92;;;15.20;;
1585;SDS011;786;48.718;9.514;2023-04-07T05:56:56;23.35;;;15.82;;
1585;SDS011;786;48.718;9.514;2023-04-07T05:59:22;21.30;;;14.70;;
1585;SDS011;786;48.718;9.514;2023-04-07T06:01:49;20.35;;;14.13;;
1585;SDS011;786;48.718;9.514;2023-04-07T06:04:17;19.95;;;14.10;;
1585;SDS011;786;48.718;9.514;2023-04-07T06:06:43;20.95;;;15.25;;
1585;SDS011;786;48.718;9.514;2023-04-07T06:09:10;20.20;;;14.52;;
1585;SDS011;786;48.718;9.514;2023-04-07T06:11:36;22.77;;;15.68;;
1585;SDS011;786;48.718;9.514;2023-04-07T06:14:02;20.20;;;15.95;;
1585;SDS011;786;48.718;9.514;2023-04-07T06:16:29;19.63;;;14.65;;
1585;SDS011;786;48.718;9.514;2023-04-07T06:18:55;20.45;;;14.30;;
1585;SDS011;786;48.718;9.514;2023-04-07T06:21:23;21.02;;;14.32;;
1585;SDS011;786;48.718;9.514;2023-04-07T06:23:50;18.98;;;13.30;;
1585;SDS011;786;48.718;9.514;2023-04-07T06:26:16;19.75;;;14.38;;
1585;SDS011;786;48.718;9.514;2023-04-07T06:28:43;19.92;;;14.95;;
1585;SDS011;786;48.718;9.514;2023-04-07T06:31:09;21.73;;;14.40;;
1585;SDS011;786;48.718;9.514;2023-04-07T06:33:36;21.48;;;14.43;;
1585;SDS011;786;48.718;9.514;2023-04-07T06:36:02;21.45;;;15.48;;
1585;SDS011;786;48.718;9.514;2023-04-07T06:38:30;20.75;;;15.23;;
1585;SDS011;786;48.718;9.514;2023-04-07T06:40:56;17.73;;;12.50;;
1585;SDS011;786;48.718;9.514;2023-04-07T06:43:23;20.50;;;15.30;;
1585;SDS011;786;48.718;9.514;2023-04-07T06:45:49;20.13;;;14.05;;
1585;SDS011;786;48.718;9.514;2023-04-07T06:48:16;19.42;;;13.60;;
1585;SDS011;786;48.718;9.514;2023-04-07T06:50:44;18.00;;;13.20;;
1585;SDS011;786;48.718;9.514;2023-04-07T06:53:11;18.08;;;13.00;;
1585;SDS011;786;48.718;9.514;2023-04-07T06:55:38;17.88;;;14.35;;
1585;SDS011;786;48.718;9.514;2023-04-07T06:58:05;18.25;;;13.52;;
1585;SDS011;786;48.718;9.514;2023-04-07T07:00:31;16.75;;;13.43;;
1585;SDS011;786;48.718;9.514;2023-04-07T07:02:58;24.35;;;19.77;;
1585;SDS011;786;48.718;9.514;2023-04-07T07:05:24;18.98;;;15.65;;
1585;SDS011;786;48.718;9.514;2023-04-07T07:07:51;21.85;;;18.48;;
1585;SDS011;786;48.718;9.514;2023-04-07T07:10:17;19.52;;;15.82;;
1585;SDS011;786;48.718;9.514;2023-04-07T07:12:45;16.98;;;14.32;;
1585;SDS011;786;48.718;9.514;2023-04-07T07:15:12;15.77;;;14.18;;
1585;SDS011;786;48.718;9.514;2023-04-07T07:17:38;15.32;;;13.82;;
1585;SDS011;786;48.718;9.514;2023-04-07T07:20:05;15.05;;;12.82;;
1585;SDS011;786;48.718;9.514;2023-04-07T07:22:32;18.75;;;16.90;;
1585;SDS011;786;48.718;9.514;2023-04-07T07:24:58;17.65;;;15.80;;
1585;SDS011;786;48.718;9.514;2023-04-07T07:27:24;18.42;;;15.98;;
1585;SDS011;786;48.718;9.514;2023-04-07T07:29:52;13.35;;;11.93;;
1585;SDS011;786;48.718;9.514;2023-04-07T07:32:18;15.50;;;12.55;;
1585;SDS011;786;48.718;9.514;2023-04-07T07:34:45;12.88;;;10.82;;
1585;SDS011;786;48.718;9.514;2023-04-07T07:37:11;14.73;;;13.32;;
1585;SDS011;786;48.718;9.514;2023-04-07T07:39:37;15.40;;;13.27;;
1585;SDS011;786;48.718;9.514;2023-04-07T07:42:04;11.88;;;10.68;;
1585;SDS011;786;48.718;9.514;2023-04-07T07:44:30;14.23;;;12.82;;
1585;SDS011;786;48.718;9.514;2023-04-07T07:46:58;15.60;;;14.20;;
1585;SDS011;786;48.718;9.514;2023-04-07T07:49:24;14.50;;;13.10;;
1585;SDS011;786;48.718;9.514;2023-04-07T07:51:51;12.95;;;11.35;;
1585;SDS011;786;48.718;9.514;2023-04-07T07:54:17;12.27;;;11.18;;
1585;SDS011;786;48.718;9.514;2023-04-07T07:56:43;14.13;;;12.90;;
1585;SDS011;786;48.718;9.514;2023-04-07T07:59:09;11.52;;;10.38;;
1585;SDS011;786;48.718;9.514;2023-04-07T08:01:36;11.13;;;10.13;;
1585;SDS011;786;48.718;9.514;2023-04-07T08:04:04;12.88;;;11.68;;
1585;SDS011;786;48.718;9.514;2023-04-07T08:06:30;11.95;;;10.95;;
1585;SDS011;786;48.718;9.514;2023-04-07T08:08:56;13.50;;;12.30;;
1585;SDS011;786;48.718;9.514;2023-04-07T08:11:23;11.45;;;10.35;;
1585;SDS011;786;48.718;9.514;2023-04-07T08:13:49;13.98;;;12.73;;
1585;SDS011;786;48.718;9.514;2023-04-07T08:16:17;11.07;;;10.13;;
1585;SDS011;786;48.718;9.514;2023-04-07T08:18:44;11.05;;;9.95;;
1585;SDS011;786;48.718;9.514;2023-04-07T08:21:12;12.75;;;11.55;;
1585;SDS011;786;48.718;9.514;2023-04-07T08:23:38;12.45;;;11.25;;
1585;SDS011;786;48.718;9.514;2023-04-07T08:26:04;17.23;;;15.82;;
1585;SDS011;786;48.718;9.514;2023-04-07T08:28:31;16.63;;;15.27;;
1585;SDS011;786;48.718;9.514;2023-04-07T08:30:57;15.35;;;14.10;;
1585;SDS011;786;48.718;9.514;2023-04-07T08:33:24;12.15;;;10.98;;
1585;SDS011;786;48.718;9.514;2023-04-07T08:35:51;12.98;;;12.07;;
1585;SDS011;786;48.718;9.514;2023-04-07T08:38:18;13.90;;;12.70;;
1585;SDS011;786;48.718;9.514;2023-04-07T08:40:45;11.25;;;10.38;;
1585;SDS011;786;48.718;9.514;2023-04-07T08:43:12;11.15;;;10.30;;
1585;SDS011;786;48.718;9.514;2023-04-07T08:45:40;13.75;;;12.77;;
1585;SDS011;786;48.718;9.514;2023-04-07T08:48:08;11.13;;;10.27;;
1585;SDS011;786;48.718;9.514;2023-04-07T08:50:38;10.65;;;9.88;;
1585;SDS011;786;48.718;9.514;2023-04-07T08:53:06;12.18;;;11.35;;
1585;SDS011;786;48.718;9.514;2023-04-07T08:55:35;12.52;;;11.52;;
1585;SDS011;786;48.718;9.514;2023-04-07T08:58:01;15.05;;;13.82;;
1585;SDS011;786;48.718;9.514;2023-04-07T09:00:28;13.32;;;12.43;;
1585;SDS011;786;48.718;9.514;2023-04-07T09:02:55;12.57;;;11.68;;
1585;SDS011;786;48.718;9.514;2023-04-07T09:05:22;11.27;;;10.38;;
1585;SDS011;786;48.718;9.514;2023-04-07T09:07:49;17.10;;;15.88;;
1585;SDS011;786;48.718;9.514;2023-04-07T09:10:15;12.90;;;11.77;;
1585;SDS011;786;48.718;9.514;2023-04-07T09:12:43;12.13;;;11.02;;
1585;SDS011;786;48.718;9.514;2023-04-07T09:15:09;13.30;;;12.20;;
1585;SDS011;786;48.718;9.514;2023-04-07T09:17:36;11.88;;;10.88;;
1585;SDS011;786;48.718;9.514;2023-04-07T09:20:02;12.88;;;11.82;;
1585;SDS011;786;48.718;9.514;2023-04-07T09:22:36;11.57;;;10.55;;
1585;SDS011;786;48.718;9.514;2023-04-07T09:25:13;14.73;;;13.43;;
1585;SDS011;786;48.718;9.514;2023-04-07T09:27:53;11.45;;;10.45;;
1585;SDS011;786;48.718;9.514;2023-04-07T09:30:20;13.20;;;12.00;;
1585;SDS011;786;48.718;9.514;2023-04-07T09:32:47;14.27;;;12.98;;
1585;SDS011;786;48.718;9.514;2023-04-07T09:35:14;12.52;;;11.38;;
1585;SDS011;786;48.718;9.514;2023-04-07T09:37:40;10.55;;;9.55;;
1585;SDS011;786;48.718;9.514;2023-04-07T09:40:08;11.23;;;10.13;;
1585;SDS011;786;48.718;9.514;2023-04-07T09:42:34;14.30;;;12.90;;
1585;SDS011;786;48.718;9.514;2023-04-07T09:45:05;11.48;;;9.88;;
1585;SDS011;786;48.718;9.514;2023-04-07T09:47:32;13.60;;;12.20;;
1585;SDS011;786;48.718;9.514;2023-04-07T09:49:59;15.23;;;13.05;;
1585;SDS011;786;48.718;9.514;2023-04-07T09:55:15;10.05;;;9.07;;
1585;SDS011;786;48.718;9.514;2023-04-07T09:57:41;10.77;;;9.50;;
1585;SDS011;786;48.718;9.514;2023-04-07T10:00:11;11.23;;;9.68;;
1585;SDS011;786;48.718;9.514;2023-04-07T10:02:38;11.00;;;9.65;;
1585;SDS011;786;48.718;9.514;2023-04-07T10:05:04;13.25;;;11.93;;
1585;SDS011;786;48.718;9.514;2023-04-07T10:07:31;13.90;;;12.50;;
1585;SDS011;786;48.718;9.514;2023-04-07T10:09:58;12.13;;;10.88;;
1585;SDS011;786;48.718;9.514;2023-04-07T10:12:24;9.60;;;8.30;;
1585;SDS011;786;48.718;9.514;2023-04-07T10:14:51;9.88;;;8.88;;
1585;SDS011;786;48.718;9.514;2023-04-07T10:17:19;13.85;;;11.55;;
1585;SDS011;786;48.718;9.514;2023-04-07T10:19:47;9.68;;;8.65;;
1585;SDS011;786;48.718;9.514;2023-04-07T10:22:14;11.00;;;9.90;;
1585;SDS011;786;48.718;9.514;2023-04-07T10:24:43;11.02;;;9.95;;
1585;SDS011;786;48.718;9.514;2023-04-07T10:27:13;10.70;;;9.60;;
1585;SDS011;786;48.718;9.514;2023-04-07T10:29:40;8.98;;;8.15;;
1585;SDS011;786;48.718;9.514;2023-04-07T10:32:08;11.05;;;10.00;;
1585;SDS011;786;48.718;9.514;2023-04-07T10:34:55;8.80;;;7.93;;
1585;SDS011;786;48.718;9.514;2023-04-07T10:37:25;11.77;;;10.63;;
1585;SDS011;786;48.718;9.514;2023-04-07T10:42:52;9.95;;;9.00;;
1585;SDS011;786;48.718;9.514;2023-04-07T10:45:20;10.20;;;9.20;;
1585;SDS011;786;48.718;9.514;2023-04-07T10:48:20;10.98;;;9.90;;
1585;SDS011;786;48.718;9.514;2023-04-07T10:57:07;11.93;;;10.70;;
1585;SDS011;786;48.718;9.514;2023-04-07T10:59:38;14.00;;;12.55;;
1585;SDS011;786;48.718;9.514;2023-04-07T11:05:00;19.10;;;17.05;;
1585;SDS011;786;48.718;9.514;2023-04-07T11:07:48;17.75;;;15.88;;
1585;SDS011;786;48.718;9.514;2023-04-07T11:10:21;13.90;;;12.57;;
1585;SDS011;786;48.718;9.514;2023-04-07T11:12:57;15.55;;;14.02;;
1585;SDS011;786;48.718;9.514;2023-04-07T11:15:25;15.18;;;13.77;;
1585;SDS011;786;48.718;9.514;2023-04-07T11:20:43;11.73;;;10.68;;
1585;SDS011;786;48.718;9.514;2023-04-07T11:23:13;15.30;;;13.82;;
1585;SDS011;786;48.718;9.514;2023-04-07T11:25:41;16.80;;;15.25;;
1585;SDS011;786;48.718;9.514;2023-04-07T11:28:09;8.27;;;7.47;;
1585;SDS011;786;48.718;9.514;2023-04-07T11:30:36;12.70;;;11.48;;
1585;SDS011;786;48.718;9.514;2023-04-07T11:33:02;10.90;;;10.00;;
1585;SDS011;786;48.718;9.514;2023-04-07T11:35:29;11.10;;;10.10;;
1585;SDS011;786;48.718;9.514;2023-04-07T11:37:56;12.77;;;11.70;;
1585;SDS011;786;48.718;9.514;2023-04-07T11:40:31;15.75;;;14.30;;
1585;SDS011;786;48.718;9.514;2023-04-07T11:42:59;13.90;;;12.70;;
1585;SDS011;786;48.718;9.514;2023-04-07T11:45:26;11.02;;;10.13;;
1585;SDS011;786;48.718;9.514;2023-04-07T11:47:52;11.20;;;10.10;;
1585;SDS011;786;48.718;9.514;2023-04-07T11:53:04;15.07;;;13.82;;
1585;SDS011;786;48.718;9.514;2023-04-07T11:55:31;9.95;;;9.05;;
1585;SDS011;786;48.718;9.514;2023-04-07T11:58:03;15.52;;;14.07;;
1585;SDS011;786;48.718;9.514;2023-04-07T12:00:30;18.23;;;16.70;;
1585;SDS011;786;48.718;9.514;2023-04-07T12:02:58;14.90;;;13.52;;
1585;SDS011;786;48.718;9.514;2023-04-07T12:05:40;9.90;;;8.90;;
1585;SDS011;786;48.718;9.514;2023-04-07T12:08:07;10.63;;;9.25;;
1585;SDS011;786;48.718;9.514;2023-04-07T12:10:35;15.68;;;14.18;;
1585;SDS011;786;48.718;9.514;2023-04-07T12:13:04;15.63;;;14.13;;
1585;SDS011;786;48.718;9.514;2023-04-07T12:15:31;8.45;;;7.70;;
1585;SDS011;786;48.718;9.514;2023-04-07T12:17:58;14.52;;;13.18;;
1585;SDS011;786;48.718;9.514;2023-04-07T12:20:25;10.05;;;8.82;;
1585;SDS011;786;48.718;9.514;2023-04-07T12:22:52;10.77;;;9.77;;
1585;SDS011;786;48.718;9.514;2023-04-07T12:25:18;13.30;;;12.00;;
1585;SDS011;786;48.718;9.514;2023-04-07T12:27:46;16.50;;;15.07;;
1585;SDS011;786;48.718;9.514;2023-04-07T12:30:12;7.65;;;6.82;;
1585;SDS011;786;48.718;9.514;2023-04-07T12:32:38;7.63;;;6.90;;
1585;SDS011;786;48.718;9.514;2023-04-07T12:35:05;7.05;;;6.35;;
1585;SDS011;786;48.718;9.514;2023-04-07T12:37:31;8.73;;;7.53;;
1585;SDS011;786;48.718;9.514;2023-04-07T12:39:58;7.47;;;6.78;;
1585;SDS011;786;48.718;9.514;2023-04-07T12:42:24;13.75;;;12.43;;
1585;SDS011;786;48.718;9.514;2023-04-07T12:44:52;8.23;;;6.78;;
1585;SDS011;786;48.718;9.514;2023-04-07T12:47:19;8.23;;;7.43;;
1585;SDS011;786;48.718;9.514;2023-04-07T12:49:45;10.85;;;9.77;;
1585;SDS011;786;48.718;9.514;2023-04-07T12:52:12;16.70;;;15.20;;
1585;SDS011;786;48.718;9.514;2023-04-07T12:54:38;8.38;;;7.43;;
1585;SDS011;786;48.718;9.514;2023-04-07T12:57:06;10.45;;;9.38;;
1585;SDS011;786;48.718;9.514;2023-04-07T12:59:33;8.32;;;6.53;;
1585;SDS011;786;48.718;9.514;2023-04-07T13:02:01;7.43;;;6.70;;
1585;SDS011;786;48.718;9.514;2023-04-07T13:04:27;7.55;;;6.75;;
1585;SDS011;786;48.718;9.514;2023-04-07T13:06:55;6.47;;;5.88;;
1585;SDS011;786;48.718;9.514;2023-04-07T13:09:21;7.57;;;6.60;;
1585;SDS011;786;48.718;9.514;2023-04-07T13:11:47;8.85;;;7.75;;
1585;SDS011;786;48.718;9.514;2023-04-07T13:14:14;9.90;;;6.57;;
1585;SDS011;786;48.718;9.514;2023-04-07T13:16:40;10.30;;;7.15;;
1585;SDS011;786;48.718;9.514;2023-04-07T13:19:08;7.68;;;6.32;;
1585;SDS011;786;48.718;9.514;2023-04-07T13:21:35;8.43;;;6.57;;
1585;SDS011;786;48.718;9.514;2023-04-07T13:24:01;8.55;;;7.63;;
1585;SDS011;786;48.718;9.514;2023-04-07T13:26:28;9.35;;;7.38;;
1585;SDS011;786;48.718;9.514;2023-04-07T13:28:54;8.38;;;7.50;;
1585;SDS011;786;48.718;9.514;2023-04-07T13:31:20;7.13;;;5.78;;
1585;SDS011;786;48.718;9.514;2023-04-07T13:34:02;10.25;;;9.25;;
1585;SDS011;786;48.718;9.514;2023-04-07T13:36:36;10.98;;;7.78;;
1585;SDS011;786;48.718;9.514;2023-04-07T13:39:02;9.75;;;8.75;;
1585;SDS011;786;48.718;9.514;2023-04-07T13:41:28;8.73;;;7.50;;
1585;SDS011;786;48.718;9.514;2023-04-07T13:43:55;8.60;;;7.63;;
1585;SDS011;786;48.718;9.514;2023-04-07T13:46:22;6.47;;;5.88;;
1585;SDS011;786;48.718;9.514;2023-04-07T13:48:48;8.43;;;6.70;;
1585;SDS011;786;48.718;9.514;2023-04-07T13:51:16;10.25;;;7.28;;
1585;SDS011;786;48.718;9.514;2023-04-07T13:53:44;9.13;;;8.23;;
1585;SDS011;786;48.718;9.514;2023-04-07T13:56:10;7.00;;;6.25;;
1585;SDS011;786;48.718;9.514;2023-04-07T13:58:37;10.75;;;9.48;;
1585;SDS011;786;48.718;9.514;2023-04-07T14:01:03;11.05;;;7.97;;
1585;SDS011;786;48.718;9.514;2023-04-07T14:03:29;9.68;;;8.65;;
1585;SDS011;786;48.718;9.514;2023-04-07T14:05:56;9.48;;;8.10;;
1585;SDS011;786;48.718;9.514;2023-04-07T14:08:26;8.02;;;7.22;;
1585;SDS011;786;48.718;9.514;2023-04-07T14:10:53;7.38;;;6.53;;
1585;SDS011;786;48.718;9.514;2023-04-07T14:13:19;9.32;;;8.07;;
1585;SDS011;786;48.718;9.514;2023-04-07T14:15:46;7.68;;;6.97;;
1585;SDS011;786;48.718;9.514;2023-04-07T14:18:12;9.95;;;8.35;;
1585;SDS011;786;48.718;9.514;2023-04-07T14:20:39;11.32;;;8.85;;
1585;SDS011;786;48.718;9.514;2023-04-07T14:23:05;11.18;;;9.70;;
1585;SDS011;786;48.718;9.514;2023-04-07T14:25:33;8.80;;;7.90;;
1585;SDS011;786;48.718;9.514;2023-04-07T14:27:59;12.70;;;11.38;;
1585;SDS011;786;48.718;9.514;2023-04-07T14:30:25;8.68;;;7.78;;
1585;SDS011;786;48.718;9.514;2023-04-07T14:32:52;8.40;;;7.03;;
1585;SDS011;786;48.718;9.514;2023-04-07T14:35:18;11.85;;;10.65;;
1585;SDS011;786;48.718;9.514;2023-04-07T14:37:44;9.25;;;8.25;;
1585;SDS011;786;48.718;9.514;2023-04-07T14:40:11;10.63;;;9.60;;
1585;SDS011;786;48.718;9.514;2023-04-07T14:42:39;9.50;;;8.05;;
1585;SDS011;786;48.718;9.514;2023-04-07T14:45:06;9.75;;;8.77;;
1585;SDS011;786;48.718;9.514;2023-04-07T14:47:33;12.00;;;10.63;;
1585;SDS011;786;48.718;9.514;2023-04-07T14:49:59;10.35;;;8.65;;
1585;SDS011;786;48.718;9.514;2023-04-07T14:52:25;9.05;;;8.15;;
1585;SDS011;786;48.718;9.514;2023-04-07T14:54:52;8.90;;;8.00;;
1585;SDS011;786;48.718;9.514;2023-04-07T14:57:18;10.82;;;9.73;;
1585;SDS011;786;48.718;9.514;2023-04-07T14:59:46;9.82;;;8.88;;
1585;SDS011;786;48.718;9.514;2023-04-07T15:02:12;9.18;;;8.38;;
1585;SDS011;786;48.718;9.514;2023-04-07T15:04:38;11.95;;;10.88;;
1585;SDS011;786;48.718;9.514;2023-04-07T15:07:05;10.38;;;9.27;;
1585;SDS011;786;48.718;9.514;2023-04-07T15:09:31;9.38;;;8.43;;
1585;SDS011;786;48.718;9.514;2023-04-07T15:11:57;10.20;;;8.10;;
1585;SDS011;786;48.718;9.514;2023-04-07T15:14:24;8.02;;;6.70;;
1585;SDS011;786;48.718;9.514;2023-04-07T15:16:52;7.47;;;6.78;;
1585;SDS011;786;48.718;9.514;2023-04-07T15:19:18;8.23;;;7.40;;
1585;SDS011;786;48.718;9.514;2023-04-07T15:21:45;6.55;;;5.88;;
1585;SDS011;786;48.718;9.514;2023-04-07T15:24:11;6.22;;;5.63;;
1585;SDS011;786;48.718;9.514;2023-04-07T15:26:39;9.30;;;8.40;;
1585;SDS011;786;48.718;9.514;2023-04-07T15:29:06;8.25;;;7.47;;
1585;SDS011;786;48.718;9.514;2023-04-07T15:31:32;9.05;;;7.20;;